Time;durP1;ratioP1;P1;durP2;ratioP2;P2;SDS_P1;SDS_P2;PMS_P1;PMS_P2;Temp;Humidity;BMP_temperature;BMP_pressure;BME280_temperature;BME280_humidity;BME280_pressure;Samples;Min_cycle;Max_cycle;Signal;HPM_P1;HPM_P2
2021/03/18 00:01:20;;;;;;;13.50;9.25;;;-0.50;99.90;;;;;;4944969;28;20074;-46
2021/03/18 00:03:48;;;;;;;13.63;10.07;;;-0.40;99.90;;;;;;4947441;28;20024;-47
2021/03/18 00:06:14;;;;;;;15.25;9.65;;;-0.50;99.90;;;;;;4947176;28;20046;-45
2021/03/18 00:08:40;;;;;;;12.55;9.73;;;-0.40;99.90;;;;;;4945383;28;20043;-45
2021/03/18 00:11:12;;;;;;;14.55;10.10;;;-0.40;99.90;;;;;;4943945;29;20058;-46
2021/03/18 00:13:39;;;;;;;12.70;9.77;;;-0.40;99.90;;;;;;4946709;28;20031;-47
2021/03/18 00:16:05;;;;;;;12.18;9.32;;;-0.30;99.90;;;;;;4944966;28;20032;-45
2021/03/18 00:18:37;;;;;;;13.43;10.13;;;-0.30;99.90;;;;;;4935436;28;20042;-45
2021/03/18 00:21:03;;;;;;;13.10;10.10;;;-0.30;99.90;;;;;;4946735;28;20396;-46
2021/03/18 00:23:30;;;;;;;14.07;10.43;;;-0.30;99.90;;;;;;4947215;28;20048;-46
2021/03/18 00:25:56;;;;;;;12.57;9.77;;;-0.20;99.90;;;;;;4947228;28;20115;-46
2021/03/18 00:28:21;;;;;;;14.45;10.52;;;-0.20;99.90;;;;;;4945221;28;20031;-45
2021/03/18 00:30:47;;;;;;;11.90;9.77;;;-0.20;99.90;;;;;;4949981;28;20042;-48
2021/03/18 00:33:13;;;;;;;13.70;9.57;;;-0.20;99.90;;;;;;4950314;28;20104;-44
2021/03/18 00:35:39;;;;;;;14.25;10.48;;;-0.20;99.90;;;;;;4944264;28;20041;-50
2021/03/18 00:38:04;;;;;;;13.93;10.88;;;-0.20;99.90;;;;;;4946565;28;20064;-47
2021/03/18 00:40:37;;;;;;;14.13;10.77;;;-0.20;99.90;;;;;;4936473;28;20061;-47
2021/03/18 00:43:06;;;;;;;12.50;10.30;;;-0.20;99.90;;;;;;4945526;28;20059;-46
2021/03/18 00:45:37;;;;;;;15.27;10.82;;;-0.20;99.90;;;;;;4944410;28;20543;-47
2021/03/18 00:48:05;;;;;;;14.68;10.32;;;-0.20;99.90;;;;;;4950774;28;20042;-47
2021/03/18 00:50:44;;;;;;;14.02;10.32;;;-0.20;99.90;;;;;;4948773;28;20035;-49
2021/03/18 00:53:13;;;;;;;13.27;9.95;;;-0.20;99.90;;;;;;4950675;28;20080;-47
2021/03/18 00:55:39;;;;;;;14.60;10.85;;;-0.20;99.90;;;;;;4949946;29;20054;-45
2021/03/18 00:58:05;;;;;;;14.65;10.60;;;-0.20;99.90;;;;;;4949280;28;20430;-47
2021/03/18 01:00:51;;;;;;;12.63;10.10;;;-0.20;99.90;;;;;;5011168;23;20041;-54
2021/03/18 01:03:16;;;;;;;14.98;11.23;;;-0.20;99.90;;;;;;5022403;28;20063;-56
2021/03/18 01:06:09;;;;;;;13.63;10.80;;;-0.20;99.90;;;;;;5031479;28;20025;-56
2021/03/18 01:08:36;;;;;;;11.73;9.73;;;-0.20;99.90;;;;;;5023142;28;20052;-55
2021/03/18 01:11:25;;;;;;;17.15;11.88;;;-0.20;99.90;;;;;;5029956;28;20010;-56
2021/03/18 01:14:17;;;;;;;13.45;11.10;;;-0.20;99.90;;;;;;5023751;28;20523;-55
2021/03/18 01:16:49;;;;;;;17.27;12.32;;;-0.20;99.90;;;;;;5028476;28;20048;-54
2021/03/18 01:19:16;;;;;;;14.52;11.38;;;-0.20;99.90;;;;;;5019812;28;20484;-54
2021/03/18 01:21:48;;;;;;;16.38;11.55;;;-0.20;99.90;;;;;;5029479;28;20437;-52
2021/03/18 01:24:14;;;;;;;17.23;12.75;;;-0.10;99.90;;;;;;5030864;28;20029;-57
2021/03/18 01:26:41;;;;;;;16.05;12.25;;;-0.10;99.90;;;;;;5029285;28;20025;-55
2021/03/18 01:29:07;;;;;;;17.35;13.82;;;-0.10;99.90;;;;;;5016614;28;20021;-54
2021/03/18 01:31:33;;;;;;;19.75;14.52;;;0.00;99.90;;;;;;5030625;28;20025;-52
2021/03/18 01:34:00;;;;;;;19.80;13.63;;;0.00;99.90;;;;;;5030633;28;20430;-55
2021/03/18 01:36:26;;;;;;;17.60;14.27;;;0.00;99.90;;;;;;5030411;28;20033;-56
2021/03/18 01:38:52;;;;;;;22.30;15.80;;;0.00;99.90;;;;;;5027533;28;20018;-56
2021/03/18 01:41:19;;;;;;;23.65;15.45;;;0.10;99.90;;;;;;5029841;28;20391;-56
2021/03/18 01:43:45;;;;;;;24.98;16.17;;;0.10;99.90;;;;;;5022364;28;20018;-55
2021/03/18 01:46:13;;;;;;;23.42;15.85;;;0.20;99.90;;;;;;5024731;28;20120;-58
2021/03/18 01:48:43;;;;;;;25.98;16.27;;;0.20;99.90;;;;;;5025714;28;20017;-58
2021/03/18 01:51:11;;;;;;;26.45;17.38;;;0.20;99.90;;;;;;5028845;28;20017;-55
2021/03/18 01:53:37;;;;;;;27.35;18.30;;;0.30;99.90;;;;;;5030493;28;20391;-56
2021/03/18 01:56:04;;;;;;;22.02;16.40;;;0.30;99.90;;;;;;5028070;28;20022;-58
2021/03/18 01:58:31;;;;;;;27.20;18.10;;;0.30;99.90;;;;;;5028842;28;20060;-59
2021/03/18 02:00:59;;;;;;;29.92;18.02;;;0.30;99.90;;;;;;5017406;28;20061;-57
2021/03/18 02:03:26;;;;;;;26.40;17.00;;;0.30;99.90;;;;;;5027747;28;20075;-56
2021/03/18 02:05:52;;;;;;;25.55;17.63;;;0.30;99.90;;;;;;5028068;28;20033;-55
2021/03/18 02:08:18;;;;;;;28.65;18.90;;;0.30;99.90;;;;;;5029476;28;20384;-56
2021/03/18 02:10:44;;;;;;;38.05;18.10;;;0.40;99.90;;;;;;5027339;28;20033;-55
2021/03/18 02:13:12;;;;;;;26.70;16.48;;;0.40;99.90;;;;;;5023721;28;20522;-55
2021/03/18 02:15:41;;;;;;;28.77;16.70;;;0.30;99.90;;;;;;5028249;28;20380;-54
2021/03/18 02:18:17;;;;;;;27.42;15.88;;;0.40;99.90;;;;;;5020537;28;20034;-57
2021/03/18 02:21:20;;;;;;;25.58;16.05;;;0.40;99.90;;;;;;5029724;28;20037;-59
2021/03/18 02:23:51;;;;;;;26.92;16.52;;;0.40;99.90;;;;;;5029756;28;20550;-58
2021/03/18 02:26:28;;;;;;;25.33;15.63;;;0.40;99.90;;;;;;5029311;28;20078;-59
2021/03/18 02:29:15;;;;;;;23.08;16.15;;;0.40;99.90;;;;;;5026576;28;20030;-58
2021/03/18 02:32:04;;;;;;;51.28;17.85;;;0.40;99.90;;;;;;5024302;28;20080;-57
2021/03/18 02:34:59;;;;;;;22.33;15.85;;;0.40;99.90;;;;;;5028694;28;20032;-56
2021/03/18 02:37:28;;;;;;;22.20;14.93;;;0.40;99.90;;;;;;5029391;28;20045;-57
2021/03/18 02:40:02;;;;;;;22.25;14.65;;;0.40;99.90;;;;;;5029368;28;20479;-55
2021/03/18 02:42:32;;;;;;;25.67;13.25;;;0.30;99.90;;;;;;5029380;28;20491;-55
2021/03/18 02:45:00;;;;;;;26.15;13.35;;;0.30;99.90;;;;;;5027060;28;20072;-55
2021/03/18 02:47:27;;;;;;;37.13;13.43;;;0.30;99.90;;;;;;5028239;28;20018;-54
2021/03/18 02:49:54;;;;;;;21.83;13.27;;;0.30;99.90;;;;;;5025770;28;20030;-55
2021/03/18 02:52:23;;;;;;;16.50;10.38;;;0.20;99.90;;;;;;5028739;28;20060;-55
2021/03/18 02:54:53;;;;;;;16.98;11.00;;;0.20;99.90;;;;;;5028529;28;20101;-56
2021/03/18 02:57:20;;;;;;;28.80;10.50;;;0.20;99.90;;;;;;5028663;28;20059;-56
2021/03/18 02:59:48;;;;;;;17.23;10.52;;;0.20;99.90;;;;;;5028359;28;20029;-57
2021/03/18 03:02:17;;;;;;;14.10;9.07;;;0.20;99.90;;;;;;5018037;28;20026;-56
2021/03/18 03:04:43;;;;;;;15.30;10.00;;;0.20;99.90;;;;;;5028303;28;20076;-55
2021/03/18 03:07:11;;;;;;;14.57;9.73;;;0.20;99.90;;;;;;5028722;28;20037;-56
2021/03/18 03:09:40;;;;;;;18.55;9.82;;;0.20;99.90;;;;;;5028020;28;20029;-55
2021/03/18 03:12:07;;;;;;;13.98;9.05;;;0.20;99.90;;;;;;5028276;28;20025;-57
2021/03/18 03:14:34;;;;;;;17.25;9.40;;;0.20;99.90;;;;;;5034406;28;20442;-57
2021/03/18 03:17:01;;;;;;;15.10;9.65;;;0.30;99.90;;;;;;5024039;28;20059;-53
2021/03/18 03:19:29;;;;;;;13.13;9.40;;;0.30;99.90;;;;;;5016942;28;20065;-56
2021/03/18 03:21:56;;;;;;;13.85;8.85;;;0.20;99.90;;;;;;5026691;28;20515;-57
2021/03/18 03:24:23;;;;;;;13.02;9.55;;;0.20;99.90;;;;;;5023591;28;20029;-56
2021/03/18 03:26:52;;;;;;;14.05;9.32;;;0.30;99.90;;;;;;5027950;28;20025;-56
2021/03/18 03:29:17;;;;;;;31.13;9.43;;;0.30;99.90;;;;;;5027841;28;20033;-57
2021/03/18 03:31:43;;;;;;;22.52;10.75;;;0.30;99.90;;;;;;5019962;28;20042;-56
2021/03/18 03:34:09;;;;;;;14.13;8.75;;;0.40;99.90;;;;;;5013524;28;20033;-56
2021/03/18 03:36:35;;;;;;;36.30;11.50;;;0.40;99.90;;;;;;5027569;28;20061;-55
2021/03/18 03:39:02;;;;;;;37.85;11.75;;;0.40;99.90;;;;;;5027814;28;20083;-56
2021/03/18 03:41:28;;;;;;;15.98;10.48;;;0.40;99.90;;;;;;5023271;28;20041;-55
2021/03/18 03:43:54;;;;;;;28.85;10.63;;;0.50;99.90;;;;;;5021585;28;20130;-55
2021/03/18 03:46:19;;;;;;;20.77;11.85;;;0.50;99.90;;;;;;5023552;28;20402;-58
2021/03/18 03:48:45;;;;;;;41.67;12.88;;;0.50;99.90;;;;;;5026906;28;20075;-56
2021/03/18 03:51:10;;;;;;;17.00;10.48;;;0.50;99.90;;;;;;5027798;28;20061;-53
2021/03/18 03:53:43;;;;;;;19.63;12.27;;;0.60;99.90;;;;;;5024297;28;20021;-57
2021/03/18 03:56:28;;;;;;;26.95;12.35;;;0.60;99.90;;;;;;5027923;28;20030;-56
2021/03/18 03:58:58;;;;;;;17.48;10.68;;;0.70;99.90;;;;;;5025821;28;20113;-57
2021/03/18 04:01:26;;;;;;;19.35;11.50;;;0.70;99.90;;;;;;5027397;28;20034;-56
2021/03/18 04:03:57;;;;;;;21.77;12.10;;;0.60;99.90;;;;;;5025951;28;20032;-58
2021/03/18 04:06:24;;;;;;;26.42;12.30;;;0.70;99.90;;;;;;5027913;28;20503;-57
2021/03/18 04:08:50;;;;;;;47.35;12.93;;;0.70;99.90;;;;;;5025410;28;20340;-55
2021/03/18 04:11:18;;;;;;;19.73;11.45;;;0.80;99.90;;;;;;5027693;28;20067;-57
2021/03/18 04:13:45;;;;;;;17.17;10.75;;;0.80;99.90;;;;;;5016323;28;20272;-57
2021/03/18 04:16:11;;;;;;;21.63;11.82;;;0.80;99.90;;;;;;5024519;28;20055;-54
2021/03/18 04:18:41;;;;;;;20.95;11.32;;;0.90;99.90;;;;;;5027245;28;20492;-56
2021/03/18 04:21:10;;;;;;;17.02;10.25;;;0.90;99.90;;;;;;5027542;28;20041;-57
2021/03/18 04:23:37;;;;;;;35.85;11.45;;;0.90;99.90;;;;;;5027315;28;20018;-53
2021/03/18 04:26:03;;;;;;;26.00;11.32;;;0.90;99.90;;;;;;5027562;28;20029;-55
2021/03/18 04:28:30;;;;;;;24.85;11.93;;;0.90;99.90;;;;;;5027492;28;20040;-56
2021/03/18 04:30:58;;;;;;;17.67;10.18;;;0.90;99.90;;;;;;5024044;28;20163;-56
2021/03/18 04:33:25;;;;;;;16.55;9.85;;;0.90;99.90;;;;;;5026754;28;20025;-57
2021/03/18 04:35:51;;;;;;;15.50;9.80;;;0.90;99.90;;;;;;5027656;28;20021;-57
2021/03/18 04:38:18;;;;;;;15.95;9.63;;;0.90;99.90;;;;;;5025992;28;20030;-57
2021/03/18 04:40:45;;;;;;;14.95;9.82;;;1.00;99.90;;;;;;5027514;28;20647;-55
2021/03/18 04:43:11;;;;;;;16.77;10.18;;;0.90;99.90;;;;;;5026868;28;20039;-58
2021/03/18 04:45:39;;;;;;;16.92;10.32;;;0.90;99.90;;;;;;5025752;28;20017;-56
2021/03/18 04:48:06;;;;;;;16.90;9.93;;;1.00;99.90;;;;;;5026813;28;20057;-53
2021/03/18 04:50:32;;;;;;;13.25;9.15;;;1.00;99.90;;;;;;5025412;28;20033;-55
2021/03/18 04:52:58;;;;;;;17.35;8.90;;;1.00;99.90;;;;;;5025613;28;20079;-55
2021/03/18 04:55:24;;;;;;;14.73;9.90;;;1.00;99.90;;;;;;5027343;28;20022;-54
2021/03/18 04:58:02;;;;;;;16.70;10.13;;;1.00;99.90;;;;;;5025281;28;20033;-57
2021/03/18 05:00:29;;;;;;;16.85;9.63;;;1.00;99.90;;;;;;5026186;28;20030;-56
2021/03/18 05:03:01;;;;;;;18.45;8.90;;;1.00;99.90;;;;;;5026681;28;20521;-56
2021/03/18 05:05:27;;;;;;;22.15;9.65;;;1.00;99.90;;;;;;5026845;28;20017;-54
2021/03/18 05:07:54;;;;;;;12.77;8.77;;;1.00;99.90;;;;;;5026684;28;20056;-55
2021/03/18 05:10:23;;;;;;;15.13;9.52;;;1.00;99.90;;;;;;5026786;28;20036;-57
2021/03/18 05:12:51;;;;;;;15.70;8.98;;;1.00;99.90;;;;;;5026134;28;20026;-55
2021/03/18 05:15:17;;;;;;;14.98;9.68;;;1.00;99.90;;;;;;5026361;28;20705;-55
2021/03/18 05:17:44;;;;;;;15.75;9.32;;;1.10;99.90;;;;;;5030067;28;20454;-55
2021/03/18 05:20:12;;;;;;;16.58;8.75;;;1.00;99.90;;;;;;5029739;28;20048;-54
2021/03/18 05:22:38;;;;;;;15.00;9.32;;;1.10;99.90;;;;;;5025546;28;20026;-57
2021/03/18 05:25:08;;;;;;;14.68;8.95;;;1.10;99.90;;;;;;5029969;28;20013;-56
2021/03/18 05:27:34;;;;;;;13.25;9.38;;;1.10;99.90;;;;;;5029576;28;20026;-54
2021/03/18 05:29:59;;;;;;;14.70;9.98;;;1.10;99.90;;;;;;5030480;28;20091;-57
2021/03/18 05:32:27;;;;;;;23.42;10.77;;;1.10;99.90;;;;;;5028554;28;20394;-57
2021/03/18 05:34:52;;;;;;;14.50;9.55;;;1.10;99.90;;;;;;5027485;28;20065;-57
2021/03/18 05:37:18;;;;;;;13.98;9.38;;;1.10;99.90;;;;;;5030084;28;20025;-53
2021/03/18 05:39:43;;;;;;;14.98;9.77;;;1.10;99.90;;;;;;5028792;28;20025;-52
2021/03/18 05:42:09;;;;;;;17.50;10.27;;;1.20;99.90;;;;;;5028662;28;20087;-55
2021/03/18 05:44:35;;;;;;;23.85;9.77;;;1.20;99.90;;;;;;5028822;28;20095;-54
2021/03/18 05:47:01;;;;;;;18.27;10.05;;;1.10;99.90;;;;;;5030646;28;20381;-56
2021/03/18 05:49:29;;;;;;;14.77;10.60;;;1.10;99.90;;;;;;5030427;28;20021;-55
2021/03/18 05:51:56;;;;;;;17.23;10.10;;;1.10;99.90;;;;;;5030731;28;20052;-57
2021/03/18 05:54:23;;;;;;;18.17;9.60;;;1.10;99.90;;;;;;5029854;28;20025;-52
2021/03/18 05:56:49;;;;;;;25.58;9.75;;;1.10;99.90;;;;;;5030259;28;20032;-55
2021/03/18 05:59:18;;;;;;;15.32;9.77;;;1.10;99.90;;;;;;5030208;28;20029;-56
2021/03/18 06:01:44;;;;;;;15.30;10.38;;;1.10;99.90;;;;;;5028984;28;20036;-58
2021/03/18 06:04:10;;;;;;;14.95;10.30;;;1.10;99.90;;;;;;5030714;28;20030;-56
2021/03/18 06:06:37;;;;;;;13.68;9.32;;;1.20;99.90;;;;;;5030269;28;20411;-57
2021/03/18 06:09:06;;;;;;;18.10;9.45;;;1.20;99.90;;;;;;5026415;28;20455;-56
2021/03/18 06:11:32;;;;;;;15.30;9.75;;;1.20;99.90;;;;;;5023537;28;20087;-55
2021/03/18 06:13:57;;;;;;;20.85;11.02;;;1.30;99.90;;;;;;5026946;28;20598;-57
2021/03/18 06:16:23;;;;;;;14.50;9.70;;;1.30;99.90;;;;;;5027181;28;20109;-56
2021/03/18 06:18:50;;;;;;;14.50;9.98;;;1.30;99.90;;;;;;5030155;28;20087;-54
2021/03/18 06:21:15;;;;;;;17.90;9.60;;;1.30;99.90;;;;;;5030233;28;20559;-51
2021/03/18 06:23:41;;;;;;;17.77;10.25;;;1.30;99.90;;;;;;5030673;28;20100;-55
2021/03/18 06:26:07;;;;;;;14.80;10.35;;;1.30;99.90;;;;;;5028683;28;20032;-56
2021/03/18 06:28:35;;;;;;;15.43;9.60;;;1.30;99.90;;;;;;5028389;28;20104;-56
2021/03/18 06:31:10;;;;;;;13.88;9.32;;;1.30;99.90;;;;;;5025947;28;20454;-57
2021/03/18 06:33:42;;;;;;;15.43;9.80;;;1.40;99.90;;;;;;5029705;28;20542;-53
2021/03/18 06:36:32;;;;;;;17.70;12.30;;;1.40;99.90;;;;;;5029661;28;20068;-55
2021/03/18 06:39:02;;;;;;;17.65;10.68;;;1.40;99.90;;;;;;5030024;28;20484;-55
2021/03/18 06:41:36;;;;;;;20.88;11.85;;;1.50;99.90;;;;;;5029611;28;20013;-56
2021/03/18 06:44:21;;;;;;;18.33;10.50;;;1.60;99.90;;;;;;5029233;28;20096;-57
2021/03/18 06:46:48;;;;;;;32.22;11.85;;;1.60;99.90;;;;;;5022631;28;20060;-58
2021/03/18 06:49:15;;;;;;;16.17;10.90;;;1.70;99.90;;;;;;5029472;28;20025;-55
2021/03/18 06:51:42;;;;;;;19.73;11.18;;;1.70;99.90;;;;;;5021374;28;20040;-58
2021/03/18 06:54:20;;;;;;;26.13;12.13;;;1.80;99.90;;;;;;5020870;28;20037;-56
2021/03/18 06:56:57;;;;;;;22.48;12.60;;;1.80;99.90;;;;;;5029397;28;20032;-56
2021/03/18 06:59:24;;;;;;;24.23;11.98;;;1.80;99.90;;;;;;5029529;28;20395;-56
2021/03/18 07:02:09;;;;;;;19.73;11.88;;;1.80;99.90;;;;;;5173945;22;20437;-65
2021/03/18 07:04:47;;;;;;;25.13;11.50;;;1.90;99.90;;;;;;4940568;28;20475;-64
2021/03/18 07:07:13;;;;;;;21.33;12.25;;;1.90;99.90;;;;;;4942471;28;20034;-64
2021/03/18 07:09:40;;;;;;;35.00;12.43;;;1.90;99.90;;;;;;4955873;28;20085;-65
2021/03/18 07:12:12;;;;;;;19.50;12.52;;;1.90;99.90;;;;;;4963258;28;20057;-65
2021/03/18 07:14:49;;;;;;;20.80;11.98;;;2.00;99.90;;;;;;4943787;28;20066;-64
2021/03/18 07:17:27;;;;;;;21.35;12.18;;;2.00;99.90;;;;;;4947745;28;20034;-62
2021/03/18 07:20:11;;;;;;;19.10;12.43;;;2.00;99.90;;;;;;4959164;28;20030;-62
2021/03/18 07:22:45;;;;;;;33.25;13.23;;;2.10;99.90;;;;;;4941897;28;20358;-62
2021/03/18 07:25:12;;;;;;;17.85;11.25;;;2.10;99.90;;;;;;4947022;29;20027;-61
2021/03/18 07:27:40;;;;;;;20.85;12.00;;;2.10;99.90;;;;;;4948255;28;20370;-63
2021/03/18 07:30:07;;;;;;;19.75;11.57;;;2.10;99.90;;;;;;4947105;29;20042;-62
2021/03/18 07:32:33;;;;;;;25.73;12.48;;;2.20;99.90;;;;;;4947912;28;20027;-63
2021/03/18 07:34:59;;;;;;;18.83;11.77;;;2.20;99.90;;;;;;4943617;28;20038;-63
2021/03/18 07:37:25;;;;;;;22.85;12.20;;;2.20;99.90;;;;;;4942221;28;20031;-63
2021/03/18 07:39:50;;;;;;;25.38;11.95;;;2.30;99.90;;;;;;4934768;28;20028;-65
2021/03/18 07:42:17;;;;;;;22.33;12.15;;;2.30;99.90;;;;;;4936851;28;20589;-64
2021/03/18 07:44:44;;;;;;;22.35;12.65;;;2.40;99.90;;;;;;4935206;28;20019;-63
2021/03/18 07:47:11;;;;;;;29.35;13.68;;;2.40;99.90;;;;;;4955876;28;20031;-64
2021/03/18 07:49:44;;;;;;;22.70;12.48;;;2.40;99.90;;;;;;4958472;28;20058;-63
2021/03/18 07:52:19;;;;;;;18.83;11.05;;;2.40;99.90;;;;;;4954847;28;20027;-64
2021/03/18 07:54:56;;;;;;;21.33;11.48;;;2.40;99.90;;;;;;4957782;28;20027;-63
2021/03/18 07:57:23;;;;;;;24.60;11.82;;;2.40;99.90;;;;;;4961857;28;20088;-64
2021/03/18 07:59:49;;;;;;;21.40;11.48;;;2.40;99.90;;;;;;4957357;28;20114;-64
2021/03/18 08:02:20;;;;;;;21.02;12.25;;;2.40;99.90;;;;;;4961527;28;20041;-63
2021/03/18 08:04:52;;;;;;;22.15;11.98;;;2.40;99.90;;;;;;4958537;28;20023;-63
2021/03/18 08:07:50;;;;;;;21.20;12.05;;;2.50;99.90;;;;;;4963224;28;20051;-63
2021/03/18 08:10:22;;;;;;;18.65;9.55;;;2.60;99.90;;;;;;4991420;28;20038;-65
2021/03/18 08:12:55;;;;;;;16.63;9.68;;;2.60;99.90;;;;;;4962047;28;20105;-64
2021/03/18 08:15:43;;;;;;;19.30;8.32;;;2.60;99.90;;;;;;4952357;28;20117;-63
2021/03/18 08:18:15;;;;;;;15.45;8.25;;;2.60;99.90;;;;;;4959047;28;20033;-63
2021/03/18 08:20:40;;;;;;;15.55;9.23;;;2.60;99.90;;;;;;4961832;28;20030;-64
2021/03/18 08:23:24;;;;;;;16.35;7.63;;;2.60;99.90;;;;;;4956009;28;20171;-64
2021/03/18 08:26:00;;;;;;;16.10;8.02;;;2.60;99.90;;;;;;4947007;28;20015;-65
2021/03/18 08:28:46;;;;;;;20.00;8.57;;;2.60;99.90;;;;;;4945984;29;20050;-64
2021/03/18 08:31:15;;;;;;;13.82;8.45;;;2.80;99.90;;;;;;4945735;28;20039;-63
2021/03/18 08:33:46;;;;;;;12.15;7.65;;;2.80;99.90;;;;;;4946918;28;20133;-63
2021/03/18 08:36:29;;;;;;;14.10;8.35;;;2.90;99.90;;;;;;4946958;28;20096;-63
2021/03/18 08:39:01;;;;;;;10.70;7.45;;;2.90;99.90;;;;;;4946942;28;20027;-62
2021/03/18 08:41:28;;;;;;;13.07;9.10;;;3.00;99.90;;;;;;4946405;28;20023;-63
2021/03/18 08:44:18;;;;;;;13.27;7.60;;;3.10;99.90;;;;;;4945281;28;20028;-63
2021/03/18 08:46:54;;;;;;;12.10;8.23;;;3.30;99.90;;;;;;4928486;28;20031;-61
2021/03/18 08:49:41;;;;;;;11.30;7.60;;;3.40;99.90;;;;;;4938574;28;20505;-63
2021/03/18 08:52:34;;;;;;;13.68;7.43;;;3.40;99.90;;;;;;4951447;28;20084;-63
2021/03/18 08:55:00;;;;;;;10.13;7.63;;;3.50;99.90;;;;;;4952763;28;20019;-62
2021/03/18 08:57:29;;;;;;;11.15;7.72;;;3.50;99.90;;;;;;4943532;28;20027;-62
2021/03/18 09:00:00;;;;;;;12.00;7.30;;;3.50;99.90;;;;;;4953124;28;20022;-62
2021/03/18 09:02:32;;;;;;;10.85;6.30;;;3.50;99.90;;;;;;4951136;28;20027;-63
2021/03/18 09:04:59;;;;;;;10.00;6.65;;;3.50;99.90;;;;;;4951548;28;20053;-62
2021/03/18 09:07:27;;;;;;;11.88;6.70;;;3.50;99.90;;;;;;4950497;28;20077;-62
2021/03/18 09:10:13;;;;;;;9.43;5.82;;;3.60;99.90;;;;;;4949949;28;20035;-64
2021/03/18 09:12:48;;;;;;;10.97;6.23;;;3.70;99.90;;;;;;4950723;28;20066;-62
2021/03/18 09:15:29;;;;;;;8.90;6.35;;;3.80;99.90;;;;;;4953413;28;20342;-61
2021/03/18 09:17:59;;;;;;;10.75;5.85;;;3.80;99.90;;;;;;4949696;28;20036;-63
2021/03/18 09:20:29;;;;;;;9.95;6.32;;;3.80;99.90;;;;;;4952137;28;20027;-64
2021/03/18 09:23:13;;;;;;;8.25;6.75;;;3.70;99.90;;;;;;4950177;28;20560;-62
2021/03/18 09:25:40;;;;;;;9.90;6.45;;;3.70;99.90;;;;;;4951628;28;20016;-62
2021/03/18 09:28:09;;;;;;;8.38;6.28;;;3.60;99.90;;;;;;4952622;28;20130;-62
2021/03/18 09:30:37;;;;;;;10.35;5.57;;;3.70;99.90;;;;;;4950671;28;20070;-60
2021/03/18 09:33:17;;;;;;;10.95;5.90;;;3.90;99.90;;;;;;4951028;28;20024;-61
2021/03/18 09:35:43;;;;;;;8.65;5.80;;;3.90;99.90;;;;;;4949775;28;20054;-62
2021/03/18 09:38:16;;;;;;;9.65;5.95;;;3.90;99.90;;;;;;4952146;28;20054;-62
2021/03/18 09:40:42;;;;;;;7.18;6.03;;;4.00;99.90;;;;;;4951505;28;20028;-62
2021/03/18 09:43:08;;;;;;;7.47;6.05;;;4.10;99.90;;;;;;4950103;28;20611;-60
2021/03/18 09:45:33;;;;;;;8.27;5.80;;;4.30;99.90;;;;;;4950353;28;20027;-60
2021/03/18 09:47:59;;;;;;;7.18;5.15;;;4.50;99.90;;;;;;4951586;28;20027;-62
2021/03/18 09:50:28;;;;;;;8.57;5.68;;;4.50;99.90;;;;;;4946401;28;20094;-63
2021/03/18 09:53:11;;;;;;;10.77;6.72;;;4.50;99.90;;;;;;4949850;28;20096;-63
2021/03/18 09:55:38;;;;;;;8.50;5.82;;;4.60;99.90;;;;;;4951867;28;20106;-61
2021/03/18 09:58:09;;;;;;;7.93;5.05;;;4.80;99.90;;;;;;4952428;28;20024;-63
2021/03/18 10:00:34;;;;;;;8.30;5.05;;;4.70;99.90;;;;;;4949362;28;20031;-63
2021/03/18 10:03:01;;;;;;;6.20;5.20;;;4.60;99.90;;;;;;4945371;28;20105;-63
2021/03/18 10:05:26;;;;;;;8.23;5.38;;;4.50;99.90;;;;;;4953214;28;20046;-62
2021/03/18 10:07:56;;;;;;;8.38;5.07;;;4.60;99.90;;;;;;4948589;28;20055;-61
2021/03/18 10:10:22;;;;;;;6.78;5.22;;;4.70;99.90;;;;;;4955487;28;20034;-60
2021/03/18 10:12:50;;;;;;;6.85;5.28;;;4.80;99.90;;;;;;4951082;28;20084;-62
2021/03/18 10:15:17;;;;;;;6.90;5.15;;;5.00;99.90;;;;;;4961319;28;20464;-63
2021/03/18 10:17:44;;;;;;;8.25;5.82;;;5.20;99.90;;;;;;4952302;28;20024;-62
2021/03/18 10:20:35;;;;;;;7.05;5.45;;;5.60;99.90;;;;;;4951956;28;20023;-63
2021/03/18 10:23:03;;;;;;;8.73;5.60;;;5.80;99.90;;;;;;4934961;28;20024;-61
2021/03/18 10:25:32;;;;;;;9.25;5.10;;;6.00;99.90;;;;;;4939023;28;20043;-62
2021/03/18 10:28:13;;;;;;;7.45;4.60;;;6.20;99.90;;;;;;4943581;28;20081;-62
2021/03/18 10:30:43;;;;;;;5.45;4.65;;;6.20;99.90;;;;;;4948184;28;20098;-61
2021/03/18 10:33:18;;;;;;;7.03;4.32;;;6.20;99.90;;;;;;4950744;28;20516;-63
2021/03/18 10:35:52;;;;;;;7.72;5.25;;;6.20;99.90;;;;;;4940057;28;20630;-62
2021/03/18 10:38:30;;;;;;;8.65;5.55;;;6.30;99.90;;;;;;4946516;28;20449;-62
2021/03/18 10:40:58;;;;;;;8.15;4.53;;;6.40;99.90;;;;;;4948307;28;20023;-61
2021/03/18 10:43:27;;;;;;;6.03;4.90;;;6.50;99.90;;;;;;4932502;28;20020;-59
2021/03/18 10:45:55;;;;;;;6.80;4.68;;;6.80;99.90;;;;;;4940251;28;20035;-61
2021/03/18 10:48:24;;;;;;;4.80;4.28;;;6.90;99.90;;;;;;4957113;28;20380;-61
2021/03/18 10:50:51;;;;;;;6.50;5.05;;;7.00;99.90;;;;;;4953717;28;20512;-61
2021/03/18 10:53:18;;;;;;;7.60;5.55;;;7.00;99.90;;;;;;4955479;28;20049;-62
2021/03/18 10:55:54;;;;;;;7.07;5.20;;;7.10;99.90;;;;;;4953433;28;20461;-60
2021/03/18 10:58:25;;;;;;;7.38;5.40;;;7.20;99.90;;;;;;4956451;28;20026;-61
2021/03/18 11:01:03;;;;;;;10.68;5.82;;;7.30;99.90;;;;;;4954170;28;20035;-61
2021/03/18 11:03:36;;;;;;;9.70;5.50;;;7.50;99.90;;;;;;4954535;28;20026;-63
2021/03/18 11:06:20;;;;;;;6.20;5.55;;;7.60;99.90;;;;;;4954256;28;20059;-62
2021/03/18 11:08:50;;;;;;;7.97;6.07;;;7.70;99.90;;;;;;4957895;28;20026;-61
2021/03/18 11:11:17;;;;;;;8.23;6.30;;;7.70;99.90;;;;;;4952725;28;20024;-62
2021/03/18 11:13:45;;;;;;;8.02;5.55;;;7.90;99.90;;;;;;4952902;28;20039;-61
2021/03/18 11:16:12;;;;;;;11.70;6.18;;;7.90;99.90;;;;;;4951895;28;20537;-59
2021/03/18 11:18:37;;;;;;;7.35;5.75;;;8.00;99.90;;;;;;4955630;28;20077;-60
2021/03/18 11:21:17;;;;;;;8.10;6.20;;;8.10;99.90;;;;;;4955886;28;20023;-62
2021/03/18 11:23:42;;;;;;;8.35;6.13;;;8.10;99.90;;;;;;4952776;28;20110;-62
2021/03/18 11:26:08;;;;;;;7.47;6.10;;;8.10;99.90;;;;;;4948902;28;20106;-61
2021/03/18 11:28:35;;;;;;;6.95;5.30;;;8.10;99.90;;;;;;4948410;28;20066;-61
2021/03/18 11:31:14;;;;;;;9.55;5.72;;;8.00;99.90;;;;;;4948313;28;20031;-60
2021/03/18 11:33:40;;;;;;;8.35;5.43;;;7.70;99.90;;;;;;4948494;28;20020;-62
2021/03/18 11:36:06;;;;;;;6.75;5.47;;;7.50;99.90;;;;;;4947765;28;20038;-62
2021/03/18 11:38:33;;;;;;;6.90;5.60;;;7.40;99.90;;;;;;4948251;28;20027;-63
2021/03/18 11:40:59;;;;;;;6.95;5.18;;;7.30;99.90;;;;;;4948328;28;20019;-62
2021/03/18 11:43:25;;;;;;;6.45;4.55;;;7.10;99.90;;;;;;4948278;28;20047;-62
2021/03/18 11:45:52;;;;;;;7.00;5.78;;;6.80;99.90;;;;;;4942654;28;20020;-63
2021/03/18 11:48:17;;;;;;;8.57;5.18;;;6.60;99.90;;;;;;4946715;29;20042;-61
2021/03/18 11:50:44;;;;;;;7.63;6.13;;;6.60;99.90;;;;;;4947979;28;20027;-61
2021/03/18 11:53:09;;;;;;;8.52;5.50;;;6.50;99.90;;;;;;4941589;28;20119;-62
2021/03/18 11:55:36;;;;;;;8.57;6.07;;;6.50;99.90;;;;;;4948020;28;20153;-61
2021/03/18 11:58:02;;;;;;;8.18;5.20;;;6.30;99.90;;;;;;4932828;28;20024;-63
2021/03/18 12:00:31;;;;;;;7.72;5.55;;;6.20;99.90;;;;;;4936692;28;20123;-61
2021/03/18 12:02:58;;;;;;;6.60;5.35;;;6.10;99.90;;;;;;4959589;28;20610;-63
2021/03/18 12:05:25;;;;;;;7.22;5.25;;;6.10;99.90;;;;;;4963884;28;20023;-63
2021/03/18 12:07:51;;;;;;;6.38;5.32;;;6.10;99.90;;;;;;4964633;28;20511;-64
2021/03/18 12:10:17;;;;;;;6.13;5.15;;;6.00;99.90;;;;;;4961742;28;20110;-62
2021/03/18 12:12:42;;;;;;;6.70;5.00;;;6.00;99.90;;;;;;4963209;28;20065;-62
2021/03/18 12:15:10;;;;;;;6.30;5.32;;;6.10;99.90;;;;;;4963352;28;20097;-64
2021/03/18 12:17:37;;;;;;;7.53;5.05;;;6.10;99.90;;;;;;4964590;28;20027;-62
2021/03/18 12:20:05;;;;;;;6.93;5.00;;;6.10;99.90;;;;;;4963420;28;20544;-62
2021/03/18 12:22:31;;;;;;;5.30;4.68;;;6.20;99.90;;;;;;4939206;28;20520;-62
2021/03/18 12:24:57;;;;;;;6.05;4.57;;;6.20;99.90;;;;;;4948721;28;20154;-64
2021/03/18 12:27:22;;;;;;;7.90;4.75;;;6.30;99.90;;;;;;4951237;28;20035;-64
2021/03/18 12:29:48;;;;;;;5.32;4.57;;;6.20;99.90;;;;;;4949516;28;20024;-64
2021/03/18 12:32:13;;;;;;;5.38;4.40;;;6.10;99.90;;;;;;4946456;28;20106;-62
2021/03/18 12:34:39;;;;;;;4.57;3.90;;;6.20;99.90;;;;;;4950852;28;20019;-64
2021/03/18 12:37:05;;;;;;;4.80;4.25;;;6.30;99.90;;;;;;4949853;28;20489;-63
2021/03/18 12:39:30;;;;;;;6.25;3.72;;;6.20;99.90;;;;;;4950907;28;20023;-63
2021/03/18 12:41:56;;;;;;;4.65;4.00;;;6.30;99.90;;;;;;4946108;28;20023;-63
2021/03/18 12:44:21;;;;;;;5.32;3.17;;;6.30;99.90;;;;;;4946418;29;20061;-64
2021/03/18 12:46:48;;;;;;;4.28;3.70;;;6.30;99.90;;;;;;4950328;28;20221;-61
2021/03/18 12:49:14;;;;;;;5.53;3.38;;;6.30;99.90;;;;;;4946365;28;20035;-62
2021/03/18 12:51:40;;;;;;;4.63;3.67;;;6.30;99.90;;;;;;4946666;28;20023;-63
2021/03/18 12:54:06;;;;;;;6.60;4.10;;;6.40;99.90;;;;;;4950502;28;20247;-65
2021/03/18 12:56:33;;;;;;;4.03;3.28;;;6.50;99.90;;;;;;4951121;28;20105;-63